sensor_id;sensor_type;location;lat;lon;timestamp;temperature;humidity
32877;DHT22;19226;51.600;8.034;2023-03-18T00:02:41;11.80;99.90
32877;DHT22;19226;51.600;8.034;2023-03-18T00:05:25;11.80;99.90
32877;DHT22;19226;51.600;8.034;2023-03-18T00:08:10;11.80;99.90
32877;DHT22;19226;51.600;8.034;2023-03-18T00:10:55;11.80;99.90
32877;DHT22;19226;51.600;8.034;2023-03-18T00:13:41;11.70;99.90
32877;DHT22;19226;51.600;8.034;2023-03-18T00:16:25;11.70;99.90
32877;DHT22;19226;51.600;8.034;2023-03-18T00:19:10;11.70;99.90
32877;DHT22;19226;51.600;8.034;2023-03-18T00:21:54;11.60;99.90
32877;DHT22;19226;51.600;8.034;2023-03-18T00:24:39;11.60;99.90
32877;DHT22;19226;51.600;8.034;2023-03-18T00:27:24;11.60;99.90
32877;DHT22;19226;51.600;8.034;2023-03-18T00:30:09;11.60;99.90
32877;DHT22;19226;51.600;8.034;2023-03-18T00:32:55;11.60;99.90
32877;DHT22;19226;51.600;8.034;2023-03-18T00:35:41;11.60;99.90
32877;DHT22;19226;51.600;8.034;2023-03-18T00:38:28;11.50;99.90
32877;DHT22;19226;51.600;8.034;2023-03-18T00:41:13;11.60;99.90
32877;DHT22;19226;51.600;8.034;2023-03-18T00:43:59;11.60;99.90
32877;DHT22;19226;51.600;8.034;2023-03-18T00:46:43;11.60;99.90
32877;DHT22;19226;51.600;8.034;2023-03-18T00:49:28;11.60;99.90
32877;DHT22;19226;51.600;8.034;2023-03-18T00:52:12;11.60;99.90
32877;DHT22;19226;51.600;8.034;2023-03-18T00:54:57;11.60;99.90
32877;DHT22;19226;51.600;8.034;2023-03-18T00:57:42;11.60;99.90
32877;DHT22;19226;51.600;8.034;2023-03-18T01:00:26;11.60;99.90
32877;DHT22;19226;51.600;8.034;2023-03-18T01:03:11;11.60;99.90
32877;DHT22;19226;51.600;8.034;2023-03-18T01:05:57;11.60;99.90
32877;DHT22;19226;51.600;8.034;2023-03-18T01:08:42;11.60;99.90
32877;DHT22;19226;51.600;8.034;2023-03-18T01:11:27;11.60;99.90
32877;DHT22;19226;51.600;8.034;2023-03-18T01:14:11;11.60;99.90
32877;DHT22;19226;51.600;8.034;2023-03-18T01:16:56;11.60;99.90
32877;DHT22;19226;51.600;8.034;2023-03-18T01:19:41;11.60;99.90
32877;DHT22;19226;51.600;8.034;2023-03-18T01:22:26;11.60;99.90
32877;DHT22;19226;51.600;8.034;2023-03-18T01:25:12;11.70;99.90
32877;DHT22;19226;51.600;8.034;2023-03-18T01:27:59;11.70;99.90
32877;DHT22;19226;51.600;8.034;2023-03-18T01:30:44;11.70;99.90
32877;DHT22;19226;51.600;8.034;2023-03-18T01:33:29;11.70;99.90
32877;DHT22;19226;51.600;8.034;2023-03-18T01:36:14;11.70;99.90
32877;DHT22;19226;51.600;8.034;2023-03-18T01:38:59;11.80;99.90
32877;DHT22;19226;51.600;8.034;2023-03-18T01:41:44;11.70;99.90
32877;DHT22;19226;51.600;8.034;2023-03-18T01:44:33;11.70;99.90
32877;DHT22;19226;51.600;8.034;2023-03-18T01:47:17;11.70;99.90
32877;DHT22;19226;51.600;8.034;2023-03-18T01:50:12;11.70;99.90
32877;DHT22;19226;51.600;8.034;2023-03-18T01:53:04;11.70;99.90
32877;DHT22;19226;51.600;8.034;2023-03-18T01:55:50;11.70;99.90
32877;DHT22;19226;51.600;8.034;2023-03-18T01:58:39;11.70;99.90
32877;DHT22;19226;51.600;8.034;2023-03-18T02:01:31;11.80;99.90
32877;DHT22;19226;51.600;8.034;2023-03-18T02:04:22;11.80;99.90
32877;DHT22;19226;51.600;8.034;2023-03-18T02:07:13;11.80;99.90
32877;DHT22;19226;51.600;8.034;2023-03-18T02:10:02;11.80;99.90
32877;DHT22;19226;51.600;8.034;2023-03-18T02:12:52;11.80;99.90
32877;DHT22;19226;51.600;8.034;2023-03-18T02:15:50;11.80;99.90
32877;DHT22;19226;51.600;8.034;2023-03-18T02:18:41;11.80;99.90
32877;DHT22;19226;51.600;8.034;2023-03-18T02:24:41;11.70;99.90
32877;DHT22;19226;51.600;8.034;2023-03-18T02:27:32;11.70;99.90
32877;DHT22;19226;51.600;8.034;2023-03-18T02:30:24;11.70;99.90
32877;DHT22;19226;51.600;8.034;2023-03-18T02:33:14;11.70;99.90
32877;DHT22;19226;51.600;8.034;2023-03-18T02:36:06;11.70;99.90
32877;DHT22;19226;51.600;8.034;2023-03-18T02:38:56;11.70;99.90
32877;DHT22;19226;51.600;8.034;2023-03-18T02:41:43;11.70;99.90
32877;DHT22;19226;51.600;8.034;2023-03-18T02:44:29;11.70;99.90
32877;DHT22;19226;51.600;8.034;2023-03-18T02:47:41;11.70;99.90
32877;DHT22;19226;51.600;8.034;2023-03-18T02:50:28;11.70;99.90
32877;DHT22;19226;51.600;8.034;2023-03-18T02:53:13;11.70;99.90
32877;DHT22;19226;51.600;8.034;2023-03-18T02:55:59;11.70;99.90
32877;DHT22;19226;51.600;8.034;2023-03-18T02:58:44;11.70;99.90
32877;DHT22;19226;51.600;8.034;2023-03-18T03:01:31;11.80;99.90
32877;DHT22;19226;51.600;8.034;2023-03-18T03:04:18;11.80;99.90
32877;DHT22;19226;51.600;8.034;2023-03-18T03:07:04;11.80;99.90
32877;DHT22;19226;51.600;8.034;2023-03-18T03:10:00;11.80;99.90
32877;DHT22;19226;51.600;8.034;2023-03-18T03:12:44;11.80;99.90
32877;DHT22;19226;51.600;8.034;2023-03-18T03:15:29;11.80;99.90
32877;DHT22;19226;51.600;8.034;2023-03-18T03:18:16;11.80;99.90
32877;DHT22;19226;51.600;8.034;2023-03-18T03:21:01;11.80;99.90
32877;DHT22;19226;51.600;8.034;2023-03-18T03:23:47;11.70;99.90
32877;DHT22;19226;51.600;8.034;2023-03-18T03:26:32;11.70;99.90
32877;DHT22;19226;51.600;8.034;2023-03-18T03:29:17;11.70;99.90
32877;DHT22;19226;51.600;8.034;2023-03-18T03:32:02;11.70;99.90
32877;DHT22;19226;51.600;8.034;2023-03-18T03:34:47;11.70;99.90
32877;DHT22;19226;51.600;8.034;2023-03-18T03:37:32;11.70;99.90
32877;DHT22;19226;51.600;8.034;2023-03-18T03:40:18;11.70;99.90
32877;DHT22;19226;51.600;8.034;2023-03-18T03:43:04;11.60;99.90
32877;DHT22;19226;51.600;8.034;2023-03-18T03:45:49;11.60;99.90
32877;DHT22;19226;51.600;8.034;2023-03-18T03:48:34;11.60;99.90
32877;DHT22;19226;51.600;8.034;2023-03-18T03:51:19;11.60;99.90
32877;DHT22;19226;51.600;8.034;2023-03-18T03:54:04;11.60;99.90
32877;DHT22;19226;51.600;8.034;2023-03-18T03:56:48;11.60;99.90
32877;DHT22;19226;51.600;8.034;2023-03-18T03:59:32;11.50;99.90
32877;DHT22;19226;51.600;8.034;2023-03-18T04:02:28;11.50;99.90
32877;DHT22;19226;51.600;8.034;2023-03-18T04:05:16;11.50;99.90
32877;DHT22;19226;51.600;8.034;2023-03-18T04:08:01;11.50;99.90
32877;DHT22;19226;51.600;8.034;2023-03-18T04:10:56;11.50;99.90
32877;DHT22;19226;51.600;8.034;2023-03-18T04:13:40;11.40;99.90
32877;DHT22;19226;51.600;8.034;2023-03-18T04:16:25;11.40;99.90
32877;DHT22;19226;51.600;8.034;2023-03-18T04:19:09;11.40;99.90
32877;DHT22;19226;51.600;8.034;2023-03-18T04:21:54;11.30;99.90
32877;DHT22;19226;51.600;8.034;2023-03-18T04:24:40;11.30;99.90
32877;DHT22;19226;51.600;8.034;2023-03-18T04:27:26;11.20;99.90
32877;DHT22;19226;51.600;8.034;2023-03-18T04:30:13;11.20;99.90
32877;DHT22;19226;51.600;8.034;2023-03-18T04:33:10;11.10;99.90
32877;DHT22;19226;51.600;8.034;2023-03-18T04:35:57;11.10;99.90
32877;DHT22;19226;51.600;8.034;2023-03-18T04:38:42;11.10;99.90
32877;DHT22;19226;51.600;8.034;2023-03-18T04:41:26;11.10;99.90
32877;DHT22;19226;51.600;8.034;2023-03-18T04:44:13;11.00;99.90
32877;DHT22;19226;51.600;8.034;2023-03-18T04:47:04;11.00;99.90
32877;DHT22;19226;51.600;8.034;2023-03-18T04:49:49;10.90;99.90
32877;DHT22;19226;51.600;8.034;2023-03-18T04:52:34;10.90;99.90
32877;DHT22;19226;51.600;8.034;2023-03-18T04:55:19;10.90;99.90
32877;DHT22;19226;51.600;8.034;2023-03-18T04:58:04;10.80;99.90
32877;DHT22;19226;51.600;8.034;2023-03-18T05:00:56;10.80;99.90
32877;DHT22;19226;51.600;8.034;2023-03-18T05:03:46;10.80;99.90
32877;DHT22;19226;51.600;8.034;2023-03-18T05:06:33;10.70;99.90
32877;DHT22;19226;51.600;8.034;2023-03-18T05:09:23;10.70;99.90
32877;DHT22;19226;51.600;8.034;2023-03-18T05:12:13;10.70;99.90
32877;DHT22;19226;51.600;8.034;2023-03-18T05:14:58;10.70;99.90
32877;DHT22;19226;51.600;8.034;2023-03-18T05:17:43;10.70;99.90
32877;DHT22;19226;51.600;8.034;2023-03-18T05:20:28;10.70;99.90
32877;DHT22;19226;51.600;8.034;2023-03-18T05:23:13;10.70;99.90
32877;DHT22;19226;51.600;8.034;2023-03-18T05:26:04;10.70;99.90
32877;DHT22;19226;51.600;8.034;2023-03-18T05:28:49;10.70;99.90
32877;DHT22;19226;51.600;8.034;2023-03-18T05:31:47;10.80;99.90
32877;DHT22;19226;51.600;8.034;2023-03-18T05:34:34;10.80;99.90
32877;DHT22;19226;51.600;8.034;2023-03-18T05:37:21;10.80;99.90
32877;DHT22;19226;51.600;8.034;2023-03-18T05:40:15;10.80;99.90
32877;DHT22;19226;51.600;8.034;2023-03-18T05:43:10;10.80;99.90
32877;DHT22;19226;51.600;8.034;2023-03-18T05:46:00;10.70;99.90
32877;DHT22;19226;51.600;8.034;2023-03-18T05:49:14;10.60;99.90
32877;DHT22;19226;51.600;8.034;2023-03-18T05:52:12;10.60;99.90
32877;DHT22;19226;51.600;8.034;2023-03-18T05:55:01;10.50;99.90
32877;DHT22;19226;51.600;8.034;2023-03-18T05:57:50;10.50;99.90
32877;DHT22;19226;51.600;8.034;2023-03-18T06:00:37;10.50;99.90
32877;DHT22;19226;51.600;8.034;2023-03-18T06:03:22;10.50;99.90
32877;DHT22;19226;51.600;8.034;2023-03-18T06:06:08;10.50;99.90
32877;DHT22;19226;51.600;8.034;2023-03-18T06:08:52;10.50;99.90
32877;DHT22;19226;51.600;8.034;2023-03-18T06:11:40;10.50;99.90
32877;DHT22;19226;51.600;8.034;2023-03-18T06:14:25;10.50;99.90
32877;DHT22;19226;51.600;8.034;2023-03-18T06:17:14;10.50;99.90
32877;DHT22;19226;51.600;8.034;2023-03-18T06:20:00;10.50;99.90
32877;DHT22;19226;51.600;8.034;2023-03-18T06:22:45;10.60;99.90
32877;DHT22;19226;51.600;8.034;2023-03-18T06:25:32;10.60;99.90
32877;DHT22;19226;51.600;8.034;2023-03-18T06:28:17;10.60;99.90
32877;DHT22;19226;51.600;8.034;2023-03-18T06:31:01;10.70;99.90
32877;DHT22;19226;51.600;8.034;2023-03-18T06:33:47;10.70;99.90
32877;DHT22;19226;51.600;8.034;2023-03-18T06:36:34;10.80;99.90
32877;DHT22;19226;51.600;8.034;2023-03-18T06:39:21;10.80;99.90
32877;DHT22;19226;51.600;8.034;2023-03-18T06:42:07;10.80;99.90
32877;DHT22;19226;51.600;8.034;2023-03-18T06:45:04;10.90;99.90
32877;DHT22;19226;51.600;8.034;2023-03-18T06:48:02;10.90;99.90
32877;DHT22;19226;51.600;8.034;2023-03-18T06:50:48;11.00;99.90
32877;DHT22;19226;51.600;8.034;2023-03-18T06:53:41;11.00;99.90
32877;DHT22;19226;51.600;8.034;2023-03-18T06:56:26;11.10;99.90
32877;DHT22;19226;51.600;8.034;2023-03-18T06:59:20;11.20;99.90
32877;DHT22;19226;51.600;8.034;2023-03-18T07:02:09;11.20;99.90
32877;DHT22;19226;51.600;8.034;2023-03-18T07:04:53;11.30;99.90
32877;DHT22;19226;51.600;8.034;2023-03-18T07:07:39;11.30;99.90
32877;DHT22;19226;51.600;8.034;2023-03-18T07:10:28;11.40;99.90
32877;DHT22;19226;51.600;8.034;2023-03-18T07:13:20;11.50;99.90
32877;DHT22;19226;51.600;8.034;2023-03-18T07:16:05;11.50;99.90
32877;DHT22;19226;51.600;8.034;2023-03-18T07:18:50;11.50;99.90
32877;DHT22;19226;51.600;8.034;2023-03-18T07:21:34;11.60;99.90
32877;DHT22;19226;51.600;8.034;2023-03-18T07:24:20;11.70;99.90
32877;DHT22;19226;51.600;8.034;2023-03-18T07:27:06;11.70;99.90
32877;DHT22;19226;51.600;8.034;2023-03-18T07:29:50;11.70;99.90
32877;DHT22;19226;51.600;8.034;2023-03-18T07:32:36;11.70;99.90
32877;DHT22;19226;51.600;8.034;2023-03-18T07:35:21;11.70;99.90
32877;DHT22;19226;51.600;8.034;2023-03-18T07:38:10;11.80;99.90
32877;DHT22;19226;51.600;8.034;2023-03-18T07:40:55;11.80;99.90
32877;DHT22;19226;51.600;8.034;2023-03-18T07:43:40;11.80;99.90
32877;DHT22;19226;51.600;8.034;2023-03-18T07:46:24;11.80;99.90
32877;DHT22;19226;51.600;8.034;2023-03-18T07:49:10;11.90;99.90
32877;DHT22;19226;51.600;8.034;2023-03-18T07:51:55;11.90;99.90
32877;DHT22;19226;51.600;8.034;2023-03-18T07:54:40;12.00;99.90
32877;DHT22;19226;51.600;8.034;2023-03-18T07:57:24;12.00;99.90
32877;DHT22;19226;51.600;8.034;2023-03-18T08:00:11;12.00;99.90
32877;DHT22;19226;51.600;8.034;2023-03-18T08:02:57;12.00;99.90
32877;DHT22;19226;51.600;8.034;2023-03-18T08:05:41;12.00;99.90
32877;DHT22;19226;51.600;8.034;2023-03-18T08:08:26;12.10;99.90
32877;DHT22;19226;51.600;8.034;2023-03-18T08:11:10;12.10;99.90
32877;DHT22;19226;51.600;8.034;2023-03-18T08:13:55;12.10;99.90
32877;DHT22;19226;51.600;8.034;2023-03-18T08:16:39;12.10;99.90
32877;DHT22;19226;51.600;8.034;2023-03-18T08:19:24;12.20;99.90
32877;DHT22;19226;51.600;8.034;2023-03-18T08:22:09;12.20;99.90
32877;DHT22;19226;51.600;8.034;2023-03-18T08:24:53;12.20;99.90
32877;DHT22;19226;51.600;8.034;2023-03-18T08:27:38;12.30;99.90
32877;DHT22;19226;51.600;8.034;2023-03-18T08:30:22;12.30;99.90
32877;DHT22;19226;51.600;8.034;2023-03-18T08:33:11;12.40;99.90
32877;DHT22;19226;51.600;8.034;2023-03-18T08:35:56;12.50;99.90
32877;DHT22;19226;51.600;8.034;2023-03-18T08:38:41;12.60;99.90
32877;DHT22;19226;51.600;8.034;2023-03-18T08:41:25;12.70;99.90
32877;DHT22;19226;51.600;8.034;2023-03-18T08:44:10;12.80;99.90
32877;DHT22;19226;51.600;8.034;2023-03-18T08:46:54;12.90;99.90
32877;DHT22;19226;51.600;8.034;2023-03-18T08:49:41;13.00;99.90
32877;DHT22;19226;51.600;8.034;2023-03-18T08:52:26;13.10;99.90
32877;DHT22;19226;51.600;8.034;2023-03-18T08:55:11;13.20;99.90
32877;DHT22;19226;51.600;8.034;2023-03-18T08:57:55;13.30;99.90
32877;DHT22;19226;51.600;8.034;2023-03-18T09:00:41;13.30;99.90
32877;DHT22;19226;51.600;8.034;2023-03-18T09:03:26;13.40;99.90
32877;DHT22;19226;51.600;8.034;2023-03-18T09:06:10;13.50;99.90
32877;DHT22;19226;51.600;8.034;2023-03-18T09:08:55;13.50;99.90
32877;DHT22;19226;51.600;8.034;2023-03-18T09:11:40;13.70;99.90
32877;DHT22;19226;51.600;8.034;2023-03-18T09:14:24;13.80;99.90
32877;DHT22;19226;51.600;8.034;2023-03-18T09:17:09;13.90;99.90
32877;DHT22;19226;51.600;8.034;2023-03-18T09:19:54;14.10;99.90
32877;DHT22;19226;51.600;8.034;2023-03-18T09:22:40;14.30;99.90
32877;DHT22;19226;51.600;8.034;2023-03-18T09:25:26;14.40;99.90
32877;DHT22;19226;51.600;8.034;2023-03-18T09:28:11;14.60;99.90
32877;DHT22;19226;51.600;8.034;2023-03-18T09:30:57;14.80;99.90
32877;DHT22;19226;51.600;8.034;2023-03-18T09:33:42;14.90;99.90
32877;DHT22;19226;51.600;8.034;2023-03-18T09:36:26;14.90;99.90
32877;DHT22;19226;51.600;8.034;2023-03-18T09:39:11;15.00;99.90
32877;DHT22;19226;51.600;8.034;2023-03-18T09:44:58;15.20;99.90
32877;DHT22;19226;51.600;8.034;2023-03-18T09:48:21;15.20;99.90
32877;DHT22;19226;51.600;8.034;2023-03-18T09:57:05;15.50;99.90
32877;DHT22;19226;51.600;8.034;2023-03-18T10:00:19;15.60;99.90
32877;DHT22;19226;51.600;8.034;2023-03-18T10:06:19;15.70;99.90
32877;DHT22;19226;51.600;8.034;2023-03-18T10:09:25;15.70;99.90
32877;DHT22;19226;51.600;8.034;2023-03-18T10:12:42;15.70;99.90
32877;DHT22;19226;51.600;8.034;2023-03-18T10:15:37;15.90;99.90
32877;DHT22;19226;51.600;8.034;2023-03-18T10:24:45;15.90;99.90
32877;DHT22;19226;51.600;8.034;2023-03-18T10:27:40;15.90;99.90
32877;DHT22;19226;51.600;8.034;2023-03-18T10:34:38;16.00;99.90
32877;DHT22;19226;51.600;8.034;2023-03-18T10:37:18;16.00;99.90
32877;DHT22;19226;51.600;8.034;2023-03-18T10:40:15;16.00;99.90
32877;DHT22;19226;51.600;8.034;2023-03-18T10:43:02;16.10;99.90
32877;DHT22;19226;51.600;8.034;2023-03-18T10:45:50;16.10;99.90
32877;DHT22;19226;51.600;8.034;2023-03-18T10:48:49;16.10;99.90
32877;DHT22;19226;51.600;8.034;2023-03-18T10:51:51;16.20;99.90
32877;DHT22;19226;51.600;8.034;2023-03-18T10:54:42;16.30;99.90
32877;DHT22;19226;51.600;8.034;2023-03-18T10:57:29;16.40;99.90
32877;DHT22;19226;51.600;8.034;2023-03-18T11:06:39;16.70;99.90
32877;DHT22;19226;51.600;8.034;2023-03-18T11:09:33;16.80;99.90
32877;DHT22;19226;51.600;8.034;2023-03-18T11:12:31;16.90;99.90
32877;DHT22;19226;51.600;8.034;2023-03-18T11:15:19;16.90;99.90
32877;DHT22;19226;51.600;8.034;2023-03-18T11:18:03;17.00;99.90
32877;DHT22;19226;51.600;8.034;2023-03-18T11:20:58;17.10;99.90
32877;DHT22;19226;51.600;8.034;2023-03-18T11:24:00;17.30;99.90
32877;DHT22;19226;51.600;8.034;2023-03-18T11:26:54;17.50;99.90
32877;DHT22;19226;51.600;8.034;2023-03-18T11:30:12;17.60;99.90
32877;DHT22;19226;51.600;8.034;2023-03-18T11:33:04;17.80;99.90
32877;DHT22;19226;51.600;8.034;2023-03-18T11:35:51;18.00;99.90
32877;DHT22;19226;51.600;8.034;2023-03-18T11:38:36;18.20;99.90
32877;DHT22;19226;51.600;8.034;2023-03-18T11:41:25;18.30;99.90
32877;DHT22;19226;51.600;8.034;2023-03-18T11:44:31;18.50;99.90
32877;DHT22;19226;51.600;8.034;2023-03-18T11:47:22;18.70;99.90
32877;DHT22;19226;51.600;8.034;2023-03-18T11:50:18;18.80;99.90
32877;DHT22;19226;51.600;8.034;2023-03-18T11:53:32;18.90;99.90
32877;DHT22;19226;51.600;8.034;2023-03-18T11:56:33;19.10;99.90
32877;DHT22;19226;51.600;8.034;2023-03-18T12:06:11;19.40;99.90
32877;DHT22;19226;51.600;8.034;2023-03-18T12:17:55;19.40;99.90
32877;DHT22;19226;51.600;8.034;2023-03-18T12:20:54;19.60;99.90
32877;DHT22;19226;51.600;8.034;2023-03-18T12:23:59;19.60;99.90
32877;DHT22;19226;51.600;8.034;2023-03-18T12:32:40;19.50;99.90
32877;DHT22;19226;51.600;8.034;2023-03-18T12:36:08;19.50;99.90
32877;DHT22;19226;51.600;8.034;2023-03-18T12:42:15;19.80;99.90
32877;DHT22;19226;51.600;8.034;2023-03-18T12:45:16;20.00;99.90
32877;DHT22;19226;51.600;8.034;2023-03-18T12:48:14;20.10;99.90
32877;DHT22;19226;51.600;8.034;2023-03-18T12:51:09;20.10;99.90
32877;DHT22;19226;51.600;8.034;2023-03-18T12:54:02;20.10;99.90
32877;DHT22;19226;51.600;8.034;2023-03-18T12:56:56;20.20;99.90
32877;DHT22;19226;51.600;8.034;2023-03-18T13:00:00;20.20;99.90
32877;DHT22;19226;51.600;8.034;2023-03-18T13:02:57;20.40;99.90
32877;DHT22;19226;51.600;8.034;2023-03-18T13:05:52;20.40;99.90
32877;DHT22;19226;51.600;8.034;2023-03-18T13:18:19;20.70;99.90
32877;DHT22;19226;51.600;8.034;2023-03-18T13:21:06;20.90;99.90
32877;DHT22;19226;51.600;8.034;2023-03-18T13:27:07;20.80;99.90
32877;DHT22;19226;51.600;8.034;2023-03-18T13:30:19;20.90;99.90
32877;DHT22;19226;51.600;8.034;2023-03-18T13:39:18;21.00;99.90
32877;DHT22;19226;51.600;8.034;2023-03-18T13:42:28;20.90;99.90
32877;DHT22;19226;51.600;8.034;2023-03-18T13:45:27;21.00;99.90
32877;DHT22;19226;51.600;8.034;2023-03-18T13:48:20;20.90;99.90
32877;DHT22;19226;51.600;8.034;2023-03-18T13:51:39;20.80;99.90
32877;DHT22;19226;51.600;8.034;2023-03-18T13:54:34;20.80;99.90
32877;DHT22;19226;51.600;8.034;2023-03-18T14:00:33;20.60;99.90
32877;DHT22;19226;51.600;8.034;2023-03-18T14:03:29;20.50;99.90
32877;DHT22;19226;51.600;8.034;2023-03-18T14:06:38;20.50;99.90
32877;DHT22;19226;51.600;8.034;2023-03-18T14:15:44;20.50;99.90
32877;DHT22;19226;51.600;8.034;2023-03-18T14:18:32;20.50;99.90
32877;DHT22;19226;51.600;8.034;2023-03-18T14:21:23;20.40;99.90
32877;DHT22;19226;51.600;8.034;2023-03-18T14:27:09;20.70;99.90
32877;DHT22;19226;51.600;8.034;2023-03-18T14:36:07;20.80;99.90
32877;DHT22;19226;51.600;8.034;2023-03-18T14:45:31;20.30;99.90
32877;DHT22;19226;51.600;8.034;2023-03-18T14:48:24;20.30;99.90
32877;DHT22;19226;51.600;8.034;2023-03-18T14:51:21;20.50;99.90
32877;DHT22;19226;51.600;8.034;2023-03-18T14:54:16;20.60;99.90
32877;DHT22;19226;51.600;8.034;2023-03-18T14:57:04;20.70;99.90
32877;DHT22;19226;51.600;8.034;2023-03-18T14:59:48;20.80;99.90
32877;DHT22;19226;51.600;8.034;2023-03-18T15:02:36;20.90;99.90
32877;DHT22;19226;51.600;8.034;2023-03-18T15:05:21;20.80;99.90
32877;DHT22;19226;51.600;8.034;2023-03-18T15:08:13;20.80;99.90
32877;DHT22;19226;51.600;8.034;2023-03-18T15:11:05;20.70;99.90
32877;DHT22;19226;51.600;8.034;2023-03-18T15:13:53;20.80;99.90
32877;DHT22;19226;51.600;8.034;2023-03-18T15:16:39;20.90;99.90
32877;DHT22;19226;51.600;8.034;2023-03-18T15:19:25;20.80;99.90
32877;DHT22;19226;51.600;8.034;2023-03-18T15:22:20;20.80;99.90
32877;DHT22;19226;51.600;8.034;2023-03-18T15:25:18;20.60;99.90
32877;DHT22;19226;51.600;8.034;2023-03-18T15:28:05;20.50;99.90
32877;DHT22;19226;51.600;8.034;2023-03-18T15:30:54;20.30;99.90
32877;DHT22;19226;51.600;8.034;2023-03-18T15:33:39;20.10;99.90
32877;DHT22;19226;51.600;8.034;2023-03-18T15:36:45;19.90;99.90
32877;DHT22;19226;51.600;8.034;2023-03-18T15:39:37;19.70;99.90
32877;DHT22;19226;51.600;8.034;2023-03-18T15:42:26;19.60;99.90
32877;DHT22;19226;51.600;8.034;2023-03-18T15:45:22;19.50;99.90
32877;DHT22;19226;51.600;8.034;2023-03-18T15:48:27;19.50;99.90
32877;DHT22;19226;51.600;8.034;2023-03-18T15:51:33;19.50;99.90
32877;DHT22;19226;51.600;8.034;2023-03-18T15:54:38;19.40;99.90
32877;DHT22;19226;51.600;8.034;2023-03-18T15:57:36;19.30;99.90
32877;DHT22;19226;51.600;8.034;2023-03-18T16:00:24;19.20;99.90
32877;DHT22;19226;51.600;8.034;2023-03-18T16:03:28;19.10;99.90
32877;DHT22;19226;51.600;8.034;2023-03-18T16:06:15;19.00;99.90
32877;DHT22;19226;51.600;8.034;2023-03-18T16:09:22;18.90;99.90
32877;DHT22;19226;51.600;8.034;2023-03-18T16:12:19;18.90;99.90
32877;DHT22;19226;51.600;8.034;2023-03-18T16:15:06;18.80;99.90
32877;DHT22;19226;51.600;8.034;2023-03-18T16:17:52;18.80;99.90
32877;DHT22;19226;51.600;8.034;2023-03-18T16:20:36;18.80;99.90
32877;DHT22;19226;51.600;8.034;2023-03-18T16:23:21;18.80;99.90
32877;DHT22;19226;51.600;8.034;2023-03-18T16:26:13;18.80;99.90
32877;DHT22;19226;51.600;8.034;2023-03-18T16:28:59;18.70;99.90
32877;DHT22;19226;51.600;8.034;2023-03-18T16:31:44;18.70;99.90
32877;DHT22;19226;51.600;8.034;2023-03-18T16:34:29;18.60;99.90
32877;DHT22;19226;51.600;8.034;2023-03-18T16:37:23;18.40;99.90
32877;DHT22;19226;51.600;8.034;2023-03-18T16:40:20;18.10;99.90
32877;DHT22;19226;51.600;8.034;2023-03-18T16:43:17;17.90;99.90
32877;DHT22;19226;51.600;8.034;2023-03-18T16:46:03;17.60;99.90
32877;DHT22;19226;51.600;8.034;2023-03-18T16:48:52;17.30;99.90
32877;DHT22;19226;51.600;8.034;2023-03-18T16:51:37;17.20;99.90
32877;DHT22;19226;51.600;8.034;2023-03-18T16:54:23;17.20;99.90
32877;DHT22;19226;51.600;8.034;2023-03-18T16:57:15;17.10;99.90
32877;DHT22;19226;51.600;8.034;2023-03-18T17:00:01;17.00;99.90
32877;DHT22;19226;51.600;8.034;2023-03-18T17:02:49;16.80;99.90
32877;DHT22;19226;51.600;8.034;2023-03-18T17:05:37;16.80;99.90
32877;DHT22;19226;51.600;8.034;2023-03-18T17:08:21;16.70;99.90
32877;DHT22;19226;51.600;8.034;2023-03-18T17:11:09;16.70;99.90
32877;DHT22;19226;51.600;8.034;2023-03-18T17:13:57;16.70;99.90
32877;DHT22;19226;51.600;8.034;2023-03-18T17:16:41;16.70;99.90
32877;DHT22;19226;51.600;8.034;2023-03-18T17:19:26;16.60;99.90
32877;DHT22;19226;51.600;8.034;2023-03-18T17:22:30;16.50;99.90
32877;DHT22;19226;51.600;8.034;2023-03-18T17:25:16;16.50;99.90
32877;DHT22;19226;51.600;8.034;2023-03-18T17:28:04;16.50;99.90
32877;DHT22;19226;51.600;8.034;2023-03-18T17:30:50;16.50;99.90
32877;DHT22;19226;51.600;8.034;2023-03-18T17:33:35;16.40;99.90
32877;DHT22;19226;51.600;8.034;2023-03-18T17:36:20;16.30;99.90
32877;DHT22;19226;51.600;8.034;2023-03-18T17:39:05;16.20;99.90
32877;DHT22;19226;51.600;8.034;2023-03-18T17:41:49;16.10;99.90
32877;DHT22;19226;51.600;8.034;2023-03-18T17:44:34;16.00;99.90
32877;DHT22;19226;51.600;8.034;2023-03-18T17:47:19;15.90;99.90
32877;DHT22;19226;51.600;8.034;2023-03-18T17:50:04;15.80;99.90
32877;DHT22;19226;51.600;8.034;2023-03-18T17:52:51;15.70;99.90
32877;DHT22;19226;51.600;8.034;2023-03-18T17:55:35;15.70;99.90
32877;DHT22;19226;51.600;8.034;2023-03-18T17:58:24;15.60;99.90
32877;DHT22;19226;51.600;8.034;2023-03-18T18:01:19;15.60;99.90
32877;DHT22;19226;51.600;8.034;2023-03-18T18:04:05;15.60;99.90
32877;DHT22;19226;51.600;8.034;2023-03-18T18:06:51;15.50;99.90
32877;DHT22;19226;51.600;8.034;2023-03-18T18:09:35;15.50;99.90
32877;DHT22;19226;51.600;8.034;2023-03-18T18:12:22;15.40;99.90
32877;DHT22;19226;51.600;8.034;2023-03-18T18:15:18;15.30;99.90
32877;DHT22;19226;51.600;8.034;2023-03-18T18:18:12;15.30;99.90
32877;DHT22;19226;51.600;8.034;2023-03-18T18:21:02;15.20;99.90
32877;DHT22;19226;51.600;8.034;2023-03-18T18:23:48;15.10;99.90
32877;DHT22;19226;51.600;8.034;2023-03-18T18:26:32;15.10;99.90
32877;DHT22;19226;51.600;8.034;2023-03-18T18:29:20;15.00;99.90
32877;DHT22;19226;51.600;8.034;2023-03-18T18:32:04;15.00;99.90
32877;DHT22;19226;51.600;8.034;2023-03-18T18:34:49;15.00;99.90
32877;DHT22;19226;51.600;8.034;2023-03-18T18:37:34;15.00;99.90
32877;DHT22;19226;51.600;8.034;2023-03-18T18:40:18;14.90;99.90
32877;DHT22;19226;51.600;8.034;2023-03-18T18:43:03;14.80;99.90
32877;DHT22;19226;51.600;8.034;2023-03-18T18:45:49;14.80;99.90
32877;DHT22;19226;51.600;8.034;2023-03-18T18:48:36;14.70;99.90
32877;DHT22;19226;51.600;8.034;2023-03-18T18:51:23;14.70;99.90
32877;DHT22;19226;51.600;8.034;2023-03-18T18:54:10;14.60;99.90
32877;DHT22;19226;51.600;8.034;2023-03-18T18:56:55;14.50;99.90
32877;DHT22;19226;51.600;8.034;2023-03-18T18:59:43;14.50;99.90
32877;DHT22;19226;51.600;8.034;2023-03-18T19:02:32;14.50;99.90
32877;DHT22;19226;51.600;8.034;2023-03-18T19:05:21;14.40;99.90
32877;DHT22;19226;51.600;8.034;2023-03-18T19:08:21;14.40;99.90
32877;DHT22;19226;51.600;8.034;2023-03-18T19:11:09;14.40;99.90
32877;DHT22;19226;51.600;8.034;2023-03-18T19:13:54;14.30;99.90
32877;DHT22;19226;51.600;8.034;2023-03-18T19:16:48;14.20;99.90
32877;DHT22;19226;51.600;8.034;2023-03-18T19:19:33;14.20;99.90
32877;DHT22;19226;51.600;8.034;2023-03-18T19:22:19;14.10;99.90
32877;DHT22;19226;51.600;8.034;2023-03-18T19:25:11;14.10;99.90
32877;DHT22;19226;51.600;8.034;2023-03-18T19:27:55;14.00;99.90
32877;DHT22;19226;51.600;8.034;2023-03-18T19:30:44;13.90;99.90